Time;durP1;ratioP1;P1;durP2;ratioP2;P2;SDS_P1;SDS_P2;PMS_P1;PMS_P2;Temp;Humidity;BMP_temperature;BMP_pressure;BME280_temperature;BME280_humidity;BME280_pressure;Samples;Min_cycle;Max_cycle;Signal;HPM_P1;HPM_P2
2023/03/12 00:00:31;;;;;;;6.55;4.97;;;0.90;99.90;;;;;;5048724;28;20040;-66
2023/03/12 00:02:57;;;;;;;12.57;5.32;;;1.00;99.90;;;;;;5045956;28;20036;-66
2023/03/12 00:05:24;;;;;;;5.22;4.35;;;1.00;99.90;;;;;;5049925;28;20040;-66
2023/03/12 00:07:51;;;;;;;7.28;4.85;;;1.10;99.90;;;;;;5050268;28;20045;-66
2023/03/12 00:10:17;;;;;;;6.32;4.55;;;1.10;99.90;;;;;;5050269;28;20097;-66
2023/03/12 00:12:42;;;;;;;7.47;4.93;;;1.00;99.90;;;;;;5049042;28;20029;-67
2023/03/12 00:15:08;;;;;;;7.55;4.80;;;1.10;99.90;;;;;;5050098;28;20044;-66
2023/03/12 00:17:34;;;;;;;7.65;4.97;;;1.00;99.90;;;;;;5050019;28;20711;-67
2023/03/12 00:20:00;;;;;;;7.78;5.47;;;0.90;99.90;;;;;;5050169;28;20048;-67
2023/03/12 00:22:26;;;;;;;8.52;5.65;;;0.90;99.90;;;;;;5050131;28;20045;-66
2023/03/12 00:24:55;;;;;;;7.68;5.18;;;0.90;99.90;;;;;;5050088;28;20080;-66
2023/03/12 00:27:22;;;;;;;9.60;5.22;;;0.90;99.90;;;;;;5050034;28;20045;-66
2023/03/12 00:29:48;;;;;;;7.20;4.93;;;0.90;99.90;;;;;;5050125;28;20489;-67
2023/03/12 00:32:14;;;;;;;6.55;5.00;;;0.90;99.90;;;;;;5049847;28;20928;-66
2023/03/12 00:34:40;;;;;;;9.23;5.38;;;0.90;99.90;;;;;;5049773;28;20119;-67
2023/03/12 00:37:06;;;;;;;11.57;5.38;;;1.00;99.90;;;;;;5049872;28;20049;-66
2023/03/12 00:39:33;;;;;;;8.57;4.20;;;0.90;99.90;;;;;;5049678;28;20502;-66
2023/03/12 00:41:58;;;;;;;8.57;5.30;;;1.00;99.90;;;;;;5049701;28;20375;-67
2023/03/12 00:44:24;;;;;;;11.85;5.18;;;1.00;99.90;;;;;;5049316;28;20044;-66
2023/03/12 00:46:50;;;;;;;6.47;4.38;;;1.00;99.90;;;;;;5049866;28;20056;-66
2023/03/12 00:49:15;;;;;;;10.00;4.85;;;1.00;99.90;;;;;;5039763;28;20138;-67
2023/03/12 00:51:41;;;;;;;7.03;4.95;;;0.90;99.90;;;;;;5056818;28;20044;-66
2023/03/12 00:54:07;;;;;;;9.20;5.35;;;0.90;99.90;;;;;;5049254;28;20492;-66
2023/03/12 00:56:32;;;;;;;9.70;4.53;;;0.90;99.90;;;;;;5049796;28;20041;-66
2023/03/12 00:58:58;;;;;;;6.70;5.10;;;0.90;99.90;;;;;;5049253;28;20098;-66
2023/03/12 01:01:24;;;;;;;10.90;5.57;;;1.00;99.90;;;;;;5044115;28;20045;-66
2023/03/12 01:03:52;;;;;;;9.70;4.85;;;1.00;99.90;;;;;;5049155;28;20037;-66
2023/03/12 01:06:21;;;;;;;10.25;4.68;;;1.10;99.90;;;;;;5049211;28;20136;-66
2023/03/12 01:08:46;;;;;;;10.07;5.80;;;1.10;99.90;;;;;;5048096;28;20049;-67
2023/03/12 01:11:17;;;;;;;9.00;4.60;;;1.10;99.90;;;;;;5049253;28;20106;-66
2023/03/12 01:13:43;;;;;;;9.45;4.80;;;1.10;99.90;;;;;;5049337;28;20049;-66
2023/03/12 01:16:09;;;;;;;6.68;4.70;;;1.10;99.90;;;;;;5049561;28;20036;-66
2023/03/12 01:18:35;;;;;;;7.60;4.57;;;1.10;99.90;;;;;;5049233;28;20048;-66
2023/03/12 01:21:01;;;;;;;8.07;4.93;;;1.00;99.90;;;;;;5049534;28;20044;-66
2023/03/12 01:23:27;;;;;;;8.38;5.18;;;1.10;99.90;;;;;;5049286;28;20099;-66
2023/03/12 01:25:54;;;;;;;9.68;5.00;;;1.00;99.90;;;;;;5048790;28;20032;-66
2023/03/12 01:28:24;;;;;;;6.22;4.35;;;1.00;99.90;;;;;;5049096;28;20040;-66
2023/03/12 01:30:50;;;;;;;9.00;4.72;;;1.00;99.90;;;;;;5049212;28;20429;-66
2023/03/12 01:33:17;;;;;;;8.85;4.50;;;1.00;99.90;;;;;;5048954;28;20040;-66
2023/03/12 01:35:43;;;;;;;9.15;4.63;;;1.00;99.90;;;;;;5048923;28;20040;-66
2023/03/12 01:38:14;;;;;;;4.95;4.35;;;1.10;99.90;;;;;;5049004;28;20045;-66
2023/03/12 01:40:40;;;;;;;6.15;3.92;;;1.10;99.90;;;;;;5049052;28;20040;-66
2023/03/12 01:43:28;;;;;;;7.05;4.15;;;1.20;99.90;;;;;;5048653;28;20549;-66
2023/03/12 01:46:15;;;;;;;5.88;4.00;;;1.30;99.90;;;;;;5048589;28;20218;-66
2023/03/12 01:48:45;;;;;;;5.65;4.00;;;1.20;99.90;;;;;;5048659;28;20045;-66
2023/03/12 01:51:13;;;;;;;5.38;3.92;;;1.30;99.90;;;;;;5048920;28;20037;-66
2023/03/12 01:53:40;;;;;;;9.45;3.83;;;1.20;99.90;;;;;;5048510;28;20715;-66
2023/03/12 01:56:08;;;;;;;7.78;4.35;;;1.20;99.90;;;;;;5048520;28;20501;-66
2023/03/12 01:58:39;;;;;;;7.47;4.75;;;1.20;99.90;;;;;;5047308;28;20049;-66
2023/03/12 02:01:05;;;;;;;7.72;4.55;;;1.20;99.90;;;;;;5048867;28;20545;-66
2023/03/12 02:03:32;;;;;;;8.40;4.65;;;1.10;99.90;;;;;;5048539;28;20631;-66
2023/03/12 02:06:05;;;;;;;7.93;4.70;;;1.20;99.90;;;;;;5046944;28;20067;-67
2023/03/12 02:08:36;;;;;;;4.75;4.00;;;1.10;99.90;;;;;;5048726;28;20045;-66
2023/03/12 02:11:01;;;;;;;8.98;4.80;;;1.10;99.90;;;;;;5048452;28;20051;-67
2023/03/12 02:13:27;;;;;;;8.35;4.68;;;1.10;99.90;;;;;;5048404;28;20033;-66
2023/03/12 02:15:53;;;;;;;10.63;4.38;;;1.10;99.90;;;;;;5048339;28;20059;-66
2023/03/12 02:18:20;;;;;;;7.15;4.40;;;1.10;99.90;;;;;;5048728;28;20037;-66
2023/03/12 02:21:00;;;;;;;8.55;4.68;;;1.10;99.90;;;;;;5048645;28;20217;-66
2023/03/12 02:23:47;;;;;;;9.15;4.07;;;1.10;99.90;;;;;;5047430;28;20103;-66
2023/03/12 02:26:14;;;;;;;6.90;4.63;;;1.10;99.90;;;;;;5048124;28;20123;-66
2023/03/12 02:28:42;;;;;;;14.63;4.85;;;1.10;99.90;;;;;;5048198;28;20045;-66
2023/03/12 02:31:13;;;;;;;9.02;4.55;;;1.10;99.90;;;;;;5048180;28;20047;-66
2023/03/12 02:33:39;;;;;;;8.95;3.92;;;1.10;99.90;;;;;;5048108;28;20095;-66
2023/03/12 02:36:05;;;;;;;8.95;4.78;;;1.10;99.90;;;;;;5053179;28;20210;-66
2023/03/12 02:38:48;;;;;;;7.43;4.30;;;1.10;99.90;;;;;;5054869;28;20590;-66
2023/03/12 02:41:21;;;;;;;7.43;4.20;;;1.10;99.90;;;;;;5054896;28;20146;-66
2023/03/12 02:43:59;;;;;;;6.97;4.10;;;1.10;99.90;;;;;;5054558;28;20409;-66
2023/03/12 02:46:25;;;;;;;6.90;3.67;;;1.10;99.90;;;;;;5054899;28;20119;-66
2023/03/12 02:48:52;;;;;;;4.93;3.55;;;1.10;99.90;;;;;;5055088;28;20068;-67
2023/03/12 02:51:18;;;;;;;6.40;3.60;;;1.10;99.90;;;;;;5054920;28;20033;-66
2023/03/12 02:53:44;;;;;;;7.18;4.15;;;1.10;99.90;;;;;;5054773;28;20041;-66
2023/03/12 02:56:09;;;;;;;5.13;4.07;;;1.20;99.90;;;;;;5054786;28;20118;-66
2023/03/12 02:58:36;;;;;;;8.88;4.10;;;1.20;99.90;;;;;;5054580;28;20057;-66
2023/03/12 03:01:02;;;;;;;8.40;3.70;;;1.20;99.90;;;;;;5047244;28;20037;-66
2023/03/12 03:03:27;;;;;;;10.25;4.15;;;1.20;99.90;;;;;;5054033;28;20494;-67
2023/03/12 03:05:53;;;;;;;6.05;3.75;;;1.20;99.90;;;;;;5054046;28;20043;-66
2023/03/12 03:08:19;;;;;;;8.40;4.07;;;1.30;99.90;;;;;;5054573;28;20778;-66
2023/03/12 03:10:44;;;;;;;3.45;3.15;;;1.30;99.90;;;;;;5053974;28;20560;-66
2023/03/12 03:13:11;;;;;;;6.75;3.83;;;1.30;99.90;;;;;;5054284;28;20041;-66
2023/03/12 03:15:37;;;;;;;4.85;3.58;;;1.20;99.90;;;;;;5054116;28;20076;-66
2023/03/12 03:18:04;;;;;;;7.30;3.47;;;1.30;99.90;;;;;;5054130;28;20112;-66
2023/03/12 03:20:31;;;;;;;5.80;3.70;;;1.20;99.90;;;;;;5054206;28;20081;-67
2023/03/12 03:22:57;;;;;;;6.35;3.10;;;1.20;99.90;;;;;;5054044;28;20520;-66
2023/03/12 03:25:24;;;;;;;6.97;3.25;;;1.30;99.90;;;;;;5053684;28;20136;-67
2023/03/12 03:27:50;;;;;;;7.47;3.60;;;1.30;99.90;;;;;;5053706;28;20132;-66
2023/03/12 03:30:15;;;;;;;5.72;3.38;;;1.30;99.90;;;;;;5054123;28;20041;-66
2023/03/12 03:32:41;;;;;;;6.22;3.80;;;1.30;99.90;;;;;;5053879;28;20045;-66
2023/03/12 03:35:07;;;;;;;9.63;3.40;;;1.30;99.90;;;;;;5053802;28;20037;-66
2023/03/12 03:37:33;;;;;;;7.85;3.55;;;1.30;99.90;;;;;;5054375;28;20064;-66
2023/03/12 03:39:59;;;;;;;6.90;3.50;;;1.30;99.90;;;;;;5054264;28;20513;-66
2023/03/12 03:42:24;;;;;;;5.30;4.25;;;1.30;99.90;;;;;;5054006;28;20482;-66
2023/03/12 03:44:50;;;;;;;6.22;3.92;;;1.30;99.90;;;;;;5053776;28;20045;-66
2023/03/12 03:47:15;;;;;;;6.60;5.25;;;1.30;99.90;;;;;;5050650;28;20041;-66
2023/03/12 03:49:41;;;;;;;8.20;3.97;;;1.30;99.90;;;;;;5050784;28;20693;-66
2023/03/12 03:52:06;;;;;;;5.55;3.83;;;1.30;99.90;;;;;;5050775;28;20405;-67
2023/03/12 03:54:32;;;;;;;9.43;4.25;;;1.30;99.90;;;;;;5048935;28;20041;-66
2023/03/12 03:56:59;;;;;;;6.15;3.67;;;1.30;99.90;;;;;;5050601;28;20040;-67
2023/03/12 03:59:25;;;;;;;5.43;4.15;;;1.40;99.90;;;;;;5050451;28;20410;-67
2023/03/12 04:01:51;;;;;;;12.15;4.10;;;1.40;99.90;;;;;;5050616;28;20037;-67
2023/03/12 04:04:16;;;;;;;10.60;4.22;;;1.40;99.90;;;;;;5049949;28;20455;-66
2023/03/12 04:06:42;;;;;;;6.97;4.53;;;1.50;99.90;;;;;;5050433;28;20052;-67
2023/03/12 04:09:08;;;;;;;8.60;4.45;;;1.40;99.90;;;;;;5050131;28;20414;-66
2023/03/12 04:11:33;;;;;;;6.40;4.15;;;1.40;99.90;;;;;;5050203;28;20044;-66
2023/03/12 04:13:59;;;;;;;11.77;5.10;;;1.50;99.90;;;;;;5050014;28;20041;-66
2023/03/12 04:16:25;;;;;;;8.75;4.65;;;1.50;99.90;;;;;;5050125;28;20060;-66
2023/03/12 04:18:51;;;;;;;7.65;4.60;;;1.50;99.90;;;;;;5048596;28;20069;-67
2023/03/12 04:21:17;;;;;;;12.18;4.75;;;1.50;99.90;;;;;;5050179;28;20068;-66
2023/03/12 04:23:42;;;;;;;8.02;4.85;;;1.50;99.90;;;;;;5049763;28;20037;-66
2023/03/12 04:26:08;;;;;;;7.93;4.68;;;1.50;99.90;;;;;;5050302;28;20047;-66
2023/03/12 04:28:34;;;;;;;8.70;5.35;;;1.50;99.90;;;;;;5049896;28;20040;-66
2023/03/12 04:31:03;;;;;;;12.05;5.15;;;1.50;99.90;;;;;;5049896;28;20037;-66
2023/03/12 04:33:32;;;;;;;6.97;5.40;;;1.50;99.90;;;;;;5049724;28;20037;-66
2023/03/12 04:35:58;;;;;;;8.93;4.93;;;1.50;99.90;;;;;;5050162;28;20394;-67
2023/03/12 04:38:25;;;;;;;9.25;5.20;;;1.50;99.90;;;;;;5049815;28;20098;-66
2023/03/12 04:41:04;;;;;;;8.20;4.85;;;1.50;99.90;;;;;;5049739;28;20566;-67
2023/03/12 04:43:31;;;;;;;9.88;5.03;;;1.40;99.90;;;;;;5049423;28;20041;-66
2023/03/12 04:45:56;;;;;;;8.88;5.88;;;1.50;99.90;;;;;;5049444;28;20448;-67
2023/03/12 04:48:22;;;;;;;10.00;4.55;;;1.40;99.90;;;;;;5049739;28;20037;-67
2023/03/12 04:50:48;;;;;;;11.25;5.20;;;1.50;99.90;;;;;;5049531;28;20091;-66
2023/03/12 04:53:14;;;;;;;8.90;5.03;;;1.50;99.90;;;;;;5049416;28;20573;-66
2023/03/12 04:55:39;;;;;;;6.85;4.90;;;1.40;99.90;;;;;;5049078;28;20115;-66
2023/03/12 04:58:05;;;;;;;8.75;4.93;;;1.40;99.90;;;;;;5048886;28;20040;-67
2023/03/12 05:00:31;;;;;;;12.25;5.07;;;1.40;99.90;;;;;;5049128;28;20072;-66
2023/03/12 05:02:57;;;;;;;7.25;4.88;;;1.50;99.90;;;;;;5049353;28;20052;-66
2023/03/12 05:05:22;;;;;;;12.15;5.97;;;1.40;99.90;;;;;;5049004;28;20044;-66
2023/03/12 05:07:48;;;;;;;8.63;5.80;;;1.50;99.90;;;;;;5049096;28;20049;-67
2023/03/12 05:10:14;;;;;;;6.85;5.55;;;1.50;99.90;;;;;;5049156;28;20056;-66
2023/03/12 05:12:39;;;;;;;13.82;6.38;;;1.50;99.90;;;;;;5048921;28;20088;-66
2023/03/12 05:15:06;;;;;;;7.97;6.22;;;1.50;99.90;;;;;;5049060;28;20041;-66
2023/03/12 05:17:31;;;;;;;12.75;6.80;;;1.50;99.90;;;;;;5049123;28;20112;-67
2023/03/12 05:19:57;;;;;;;11.48;5.65;;;1.50;99.90;;;;;;5049093;28;20116;-66
2023/03/12 05:22:22;;;;;;;9.15;5.80;;;1.40;99.90;;;;;;5047625;28;20051;-67
2023/03/12 05:24:48;;;;;;;8.15;6.07;;;1.40;99.90;;;;;;5048525;28;20446;-67
2023/03/12 05:27:13;;;;;;;11.55;6.80;;;1.40;99.90;;;;;;5049154;28;20111;-67
2023/03/12 05:29:39;;;;;;;10.68;5.85;;;1.40;99.90;;;;;;5047836;28;20051;-66
2023/03/12 05:32:06;;;;;;;8.65;6.90;;;1.50;99.90;;;;;;5048925;28;20048;-66
2023/03/12 05:34:32;;;;;;;9.30;7.07;;;1.40;99.90;;;;;;5048319;28;20635;-67
2023/03/12 05:36:58;;;;;;;14.18;6.97;;;1.40;99.90;;;;;;5048675;28;20072;-66
2023/03/12 05:39:25;;;;;;;14.07;7.47;;;1.40;99.90;;;;;;5048599;28;20052;-67
2023/03/12 05:41:55;;;;;;;9.57;6.45;;;1.40;99.90;;;;;;5048606;28;20055;-66
2023/03/12 05:44:21;;;;;;;13.15;7.00;;;1.40;99.90;;;;;;5048155;28;20055;-66
2023/03/12 05:46:47;;;;;;;12.18;6.20;;;1.40;99.90;;;;;;5048306;28;20079;-66
2023/03/12 05:49:12;;;;;;;9.82;7.10;;;1.40;99.90;;;;;;5048304;28;20065;-67
2023/03/12 05:51:38;;;;;;;10.18;6.93;;;1.30;99.90;;;;;;5048404;28;20045;-67
2023/03/12 05:54:04;;;;;;;9.45;6.75;;;1.40;99.90;;;;;;5048120;28;20037;-66
2023/03/12 05:56:30;;;;;;;11.43;6.30;;;1.40;99.90;;;;;;5048373;28;20045;-66
2023/03/12 05:58:55;;;;;;;10.32;6.55;;;1.40;99.90;;;;;;5048436;28;20056;-67
2023/03/12 06:01:27;;;;;;;11.27;6.68;;;1.40;99.90;;;;;;5045776;28;20036;-66
2023/03/12 06:03:52;;;;;;;13.45;7.47;;;1.40;99.90;;;;;;5066620;28;20051;-67
2023/03/12 06:06:18;;;;;;;14.52;6.95;;;1.40;99.90;;;;;;5053327;28;20119;-67
2023/03/12 06:08:44;;;;;;;10.85;6.95;;;1.40;99.90;;;;;;5048238;28;20045;-66
2023/03/12 06:11:10;;;;;;;13.18;6.75;;;1.40;99.90;;;;;;5047801;28;20040;-66
2023/03/12 06:13:36;;;;;;;7.57;6.07;;;1.40;99.90;;;;;;5048274;28;20203;-67
2023/03/12 06:16:04;;;;;;;9.73;6.60;;;1.40;99.90;;;;;;5048127;28;20422;-66
2023/03/12 06:18:31;;;;;;;12.02;6.32;;;1.40;99.90;;;;;;5054269;28;20072;-67
2023/03/12 06:21:14;;;;;;;17.08;7.22;;;1.40;99.90;;;;;;5068046;28;20076;-66
2023/03/12 06:23:41;;;;;;;11.52;6.05;;;1.40;99.90;;;;;;5068240;28;20048;-67
2023/03/12 06:26:07;;;;;;;11.50;6.75;;;1.50;99.90;;;;;;5068061;28;20072;-66
2023/03/12 06:28:34;;;;;;;10.93;6.30;;;1.40;99.90;;;;;;5068222;28;20126;-66
2023/03/12 06:30:59;;;;;;;10.82;6.85;;;1.40;99.90;;;;;;5067881;28;20044;-66
2023/03/12 06:33:25;;;;;;;10.85;6.38;;;1.40;99.90;;;;;;5068090;28;20571;-66
2023/03/12 06:35:55;;;;;;;11.02;6.82;;;1.50;99.90;;;;;;5067718;28;20642;-66
2023/03/12 06:38:21;;;;;;;9.70;6.30;;;1.50;99.90;;;;;;5067984;28;20040;-67
2023/03/12 06:40:58;;;;;;;11.52;6.07;;;1.50;99.90;;;;;;5067947;28;20536;-67
2023/03/12 06:43:26;;;;;;;10.85;6.40;;;1.50;99.90;;;;;;5067892;28;20036;-66
2023/03/12 06:45:54;;;;;;;11.57;6.38;;;1.50;99.90;;;;;;5067635;28;20041;-67
2023/03/12 06:48:20;;;;;;;11.05;6.30;;;1.60;99.90;;;;;;5067891;28;20044;-67
2023/03/12 06:50:45;;;;;;;12.23;5.90;;;1.60;99.90;;;;;;5067969;28;20041;-67
2023/03/12 06:53:11;;;;;;;12.00;6.10;;;1.60;99.90;;;;;;5067803;28;20036;-67
2023/03/12 06:55:37;;;;;;;9.15;6.15;;;1.70;99.90;;;;;;5067393;28;20045;-67
2023/03/12 06:58:03;;;;;;;10.45;6.10;;;1.70;99.90;;;;;;5067404;28;20108;-67
2023/03/12 07:00:29;;;;;;;10.52;6.03;;;1.70;99.90;;;;;;5067915;28;20477;-67
2023/03/12 07:02:55;;;;;;;8.65;5.90;;;1.80;99.90;;;;;;5067724;28;20048;-67
2023/03/12 07:05:22;;;;;;;12.32;6.50;;;1.80;99.90;;;;;;5067555;28;20048;-67
2023/03/12 07:07:48;;;;;;;8.95;5.85;;;1.80;99.90;;;;;;5067485;28;20040;-67
2023/03/12 07:10:13;;;;;;;10.65;6.55;;;1.80;99.90;;;;;;5067446;28;20429;-67
2023/03/12 07:12:39;;;;;;;12.18;6.00;;;1.90;99.90;;;;;;5067295;28;20068;-66
2023/03/12 07:15:05;;;;;;;10.32;6.57;;;1.90;99.90;;;;;;5053762;28;20574;-67
2023/03/12 07:17:31;;;;;;;12.10;6.78;;;1.90;99.90;;;;;;5047434;28;20037;-67
2023/03/12 07:19:56;;;;;;;10.50;5.78;;;1.90;99.90;;;;;;5047645;28;20041;-67
2023/03/12 07:22:22;;;;;;;9.10;6.38;;;1.90;99.90;;;;;;5050719;28;20045;-66
2023/03/12 07:24:47;;;;;;;10.88;6.28;;;1.90;99.90;;;;;;5050786;28;20045;-67
2023/03/12 07:27:13;;;;;;;12.30;6.10;;;1.90;99.90;;;;;;5050885;28;20037;-67
2023/03/12 07:29:39;;;;;;;10.73;6.00;;;1.90;99.90;;;;;;5050925;28;20052;-67
2023/03/12 07:32:04;;;;;;;7.75;5.80;;;1.90;99.90;;;;;;5051014;28;20041;-67
2023/03/12 07:34:30;;;;;;;10.75;5.85;;;1.90;99.90;;;;;;5050728;28;20065;-67
2023/03/12 07:36:55;;;;;;;13.30;6.30;;;1.90;99.90;;;;;;5040252;28;20635;-67
2023/03/12 07:39:21;;;;;;;9.68;5.55;;;2.00;99.90;;;;;;5030270;28;20049;-67
2023/03/12 07:41:47;;;;;;;8.05;6.47;;;2.00;99.90;;;;;;5048554;28;20401;-67
2023/03/12 07:44:12;;;;;;;7.45;5.18;;;2.00;99.90;;;;;;5049824;28;20047;-67
2023/03/12 07:46:38;;;;;;;9.73;5.30;;;2.00;99.90;;;;;;5036442;28;20182;-67
2023/03/12 07:49:03;;;;;;;10.02;5.97;;;1.90;99.90;;;;;;5045310;28;20500;-67
2023/03/12 07:51:29;;;;;;;8.13;5.72;;;1.90;99.90;;;;;;5029968;28;20040;-67
2023/03/12 07:53:55;;;;;;;9.73;5.95;;;1.90;99.90;;;;;;5029202;28;20037;-67
2023/03/12 07:56:21;;;;;;;7.15;5.57;;;1.90;99.90;;;;;;5045795;28;20119;-67
2023/03/12 07:58:46;;;;;;;15.20;6.05;;;1.90;99.90;;;;;;5049948;28;20047;-67
2023/03/12 08:01:12;;;;;;;9.75;5.53;;;1.90;99.90;;;;;;5050025;28;20044;-67
2023/03/12 08:03:37;;;;;;;11.30;5.68;;;1.90;99.90;;;;;;5049761;28;20041;-67
2023/03/12 08:06:03;;;;;;;10.27;5.47;;;1.90;99.90;;;;;;5049460;28;20553;-67
2023/03/12 08:08:30;;;;;;;9.68;5.38;;;1.80;99.90;;;;;;5049154;28;20140;-66
2023/03/12 08:10:56;;;;;;;6.88;5.32;;;1.90;99.90;;;;;;5039907;28;20461;-67
2023/03/12 08:13:23;;;;;;;7.55;5.18;;;1.90;99.90;;;;;;5045213;28;20051;-67
2023/03/12 08:15:52;;;;;;;9.07;5.97;;;1.80;99.90;;;;;;5049142;28;20049;-67
2023/03/12 08:18:19;;;;;;;8.75;6.05;;;1.80;99.90;;;;;;5049075;28;20041;-67
2023/03/12 08:20:45;;;;;;;7.13;6.18;;;1.80;99.90;;;;;;5049203;28;20461;-66
2023/03/12 08:23:11;;;;;;;10.52;6.32;;;1.80;99.90;;;;;;5047062;28;20048;-67
2023/03/12 08:25:37;;;;;;;13.32;6.70;;;1.80;99.90;;;;;;5028372;28;20048;-67
2023/03/12 08:28:03;;;;;;;8.38;6.15;;;1.80;99.90;;;;;;5030690;28;20085;-66
2023/03/12 08:30:30;;;;;;;8.18;5.28;;;1.80;99.90;;;;;;5037614;28;20489;-67
2023/03/12 08:32:56;;;;;;;12.50;5.88;;;1.70;99.90;;;;;;5042585;28;20049;-67
2023/03/12 08:35:22;;;;;;;8.63;5.63;;;1.80;99.90;;;;;;5037663;28;20119;-67
2023/03/12 08:37:48;;;;;;;12.30;6.00;;;1.80;99.90;;;;;;5040548;28;20151;-67
2023/03/12 08:40:13;;;;;;;9.32;5.60;;;1.80;99.90;;;;;;5039778;28;20661;-67
2023/03/12 08:42:44;;;;;;;11.23;5.38;;;1.80;99.90;;;;;;5039543;28;20121;-67
2023/03/12 08:45:11;;;;;;;8.23;5.80;;;1.90;99.90;;;;;;5042830;28;20057;-67
2023/03/12 08:47:40;;;;;;;7.40;5.70;;;1.90;99.90;;;;;;5047536;28;20041;-67
2023/03/12 08:50:07;;;;;;;9.43;6.15;;;1.80;99.90;;;;;;5048674;28;20080;-67
2023/03/12 08:52:33;;;;;;;11.30;6.18;;;1.80;99.90;;;;;;5048199;28;20098;-66
2023/03/12 08:54:58;;;;;;;10.13;6.20;;;1.80;99.90;;;;;;5049458;28;20041;-66
2023/03/12 08:57:24;;;;;;;11.95;6.93;;;1.80;99.90;;;;;;5049323;28;20037;-66
2023/03/12 08:59:49;;;;;;;9.35;6.70;;;1.80;99.90;;;;;;5049410;28;20414;-67
2023/03/12 09:02:15;;;;;;;10.32;6.63;;;1.90;99.90;;;;;;5049341;28;20072;-66
2023/03/12 09:04:40;;;;;;;10.38;6.57;;;1.90;99.90;;;;;;5048833;28;20083;-67
2023/03/12 09:07:06;;;;;;;13.63;6.82;;;1.80;99.90;;;;;;5048992;28;20044;-67
2023/03/12 09:09:31;;;;;;;11.07;6.55;;;1.80;99.90;;;;;;5040559;28;20037;-66
2023/03/12 09:11:57;;;;;;;9.45;6.35;;;1.80;99.90;;;;;;5048940;28;20115;-67
2023/03/12 09:14:23;;;;;;;14.88;7.75;;;1.80;99.90;;;;;;5047670;28;20120;-67
2023/03/12 09:16:48;;;;;;;10.90;7.20;;;1.90;99.90;;;;;;5049129;28;20079;-67
2023/03/12 09:19:14;;;;;;;12.40;7.30;;;1.80;99.90;;;;;;5048981;28;20064;-67
2023/03/12 09:21:40;;;;;;;13.80;8.13;;;1.80;99.90;;;;;;5048806;28;20102;-67
2023/03/12 09:24:06;;;;;;;11.80;7.20;;;1.80;99.90;;;;;;5047557;28;20097;-67
2023/03/12 09:26:32;;;;;;;11.15;7.55;;;1.80;99.90;;;;;;5048834;28;20045;-67
2023/03/12 09:28:58;;;;;;;10.10;7.13;;;1.80;99.90;;;;;;5044544;28;20402;-67
2023/03/12 09:31:24;;;;;;;10.80;8.38;;;1.90;99.90;;;;;;5038976;28;20029;-67
2023/03/12 09:33:50;;;;;;;8.63;7.70;;;1.90;99.90;;;;;;5046660;28;20413;-67
2023/03/12 09:36:16;;;;;;;13.60;8.48;;;1.90;99.90;;;;;;5048296;28;20063;-67
2023/03/12 09:38:41;;;;;;;19.27;9.10;;;1.90;99.90;;;;;;5048505;28;20032;-67
2023/03/12 09:41:19;;;;;;;14.00;8.80;;;1.90;99.90;;;;;;5048386;28;20124;-66
2023/03/12 09:43:52;;;;;;;14.80;8.77;;;2.00;99.90;;;;;;5048095;28;20111;-67
2023/03/12 09:46:25;;;;;;;19.27;9.48;;;2.00;99.90;;;;;;5039162;28;20041;-67
2023/03/12 09:48:54;;;;;;;15.52;9.15;;;2.00;99.90;;;;;;5054013;28;20485;-67
2023/03/12 09:51:38;;;;;;;12.38;10.55;;;2.00;99.90;;;;;;5037295;28;20087;-66
2023/03/12 09:54:11;;;;;;;16.38;10.50;;;2.10;99.90;;;;;;5037024;28;20068;-67
2023/03/12 09:56:37;;;;;;;17.77;10.55;;;2.10;99.90;;;;;;5037095;28;20479;-67
2023/03/12 09:59:03;;;;;;;12.63;10.70;;;2.10;99.90;;;;;;5036294;28;20033;-67
2023/03/12 10:01:37;;;;;;;17.10;10.85;;;2.20;99.90;;;;;;5038663;28;20041;-67
2023/03/12 10:04:23;;;;;;;21.50;13.27;;;2.20;99.90;;;;;;5038036;28;20124;-67
2023/03/12 10:07:08;;;;;;;18.15;11.48;;;2.30;99.90;;;;;;5048781;28;20500;-67
2023/03/12 10:09:45;;;;;;;17.38;10.23;;;2.30;99.90;;;;;;5047922;28;20048;-67
2023/03/12 10:12:58;;;;;;;17.15;11.30;;;2.40;99.90;;;;;;5047923;28;20132;-67
2023/03/12 10:15:41;;;;;;;18.45;11.98;;;2.40;99.90;;;;;;4993195;28;20209;-67
2023/03/12 10:18:17;;;;;;;18.83;12.45;;;2.40;99.90;;;;;;5048257;28;20432;-67
2023/03/12 10:20:51;;;;;;;18.70;12.30;;;2.50;99.90;;;;;;5048013;28;20036;-66
2023/03/12 10:23:49;;;;;;;20.08;13.35;;;2.50;99.90;;;;;;5047139;28;20073;-66
2023/03/12 10:26:21;;;;;;;26.08;12.95;;;2.50;99.90;;;;;;5036280;28;20045;-67
2023/03/12 10:28:58;;;;;;;21.23;13.80;;;2.60;99.90;;;;;;5035514;28;20041;-67
2023/03/12 10:31:53;;;;;;;23.33;14.45;;;2.60;99.90;;;;;;5034968;28;20409;-67
2023/03/12 10:35:06;;;;;;;22.33;13.48;;;2.60;99.90;;;;;;5035188;28;20037;-67
2023/03/12 10:38:02;;;;;;;22.38;13.18;;;2.60;99.90;;;;;;5035251;28;20498;-67
2023/03/12 10:40:34;;;;;;;20.05;12.82;;;2.70;99.90;;;;;;5035699;28;20045;-67
2023/03/12 10:43:00;;;;;;;19.50;12.55;;;2.70;99.90;;;;;;5035008;28;20037;-67
2023/03/12 10:45:51;;;;;;;17.25;13.00;;;2.80;99.90;;;;;;5035081;28;20056;-67
2023/03/12 10:48:20;;;;;;;17.35;11.85;;;2.80;99.90;;;;;;5035372;28;20120;-67
2023/03/12 10:51:04;;;;;;;15.48;11.50;;;2.90;99.90;;;;;;5035094;28;20128;-67
2023/03/12 10:53:35;;;;;;;17.05;11.27;;;2.90;99.90;;;;;;5033095;28;20044;-67
2023/03/12 10:56:11;;;;;;;17.52;11.77;;;2.90;99.90;;;;;;5033492;28;20738;-67
2023/03/12 10:58:46;;;;;;;18.65;12.48;;;2.90;99.90;;;;;;5041246;28;20068;-67
2023/03/12 11:01:22;;;;;;;14.57;11.10;;;3.00;99.90;;;;;;5039618;28;20041;-67
2023/03/12 11:03:50;;;;;;;19.63;11.52;;;3.00;99.90;;;;;;5040314;28;20490;-67
2023/03/12 11:06:22;;;;;;;18.20;11.68;;;3.10;99.90;;;;;;5040065;28;20106;-67
2023/03/12 11:09:08;;;;;;;18.83;12.52;;;3.10;99.90;;;;;;5042578;28;20116;-67
2023/03/12 11:11:35;;;;;;;16.08;10.88;;;3.20;99.90;;;;;;5040517;28;20064;-67
2023/03/12 11:14:11;;;;;;;19.17;9.90;;;3.20;99.90;;;;;;5051384;28;20052;-67
2023/03/12 11:16:37;;;;;;;20.80;11.88;;;3.30;99.90;;;;;;5051666;28;20127;-67
2023/03/12 11:19:04;;;;;;;16.52;11.40;;;3.30;99.90;;;;;;5051449;28;20128;-67
2023/03/12 11:21:37;;;;;;;17.23;12.07;;;3.30;99.90;;;;;;5049845;28;20055;-67
2023/03/12 11:24:09;;;;;;;19.02;10.70;;;3.40;99.90;;;;;;5050905;28;20107;-67
2023/03/12 11:27:05;;;;;;;18.80;12.15;;;3.40;99.90;;;;;;5051384;28;20048;-67
2023/03/12 11:29:38;;;;;;;15.98;11.43;;;3.40;99.90;;;;;;5043841;28;20049;-66
2023/03/12 11:32:30;;;;;;;;;;;3.50;99.90;;;;;;5051578;28;20045;-67
2023/03/12 11:34:56;;;;;;;18.98;10.20;;;3.50;99.90;;;;;;5031309;28;20389;-67
2023/03/12 11:37:53;;;;;;;16.25;9.45;;;3.60;99.90;;;;;;5040185;28;20087;-67
2023/03/12 11:40:24;;;;;;;15.57;10.15;;;3.60;99.90;;;;;;5030699;28;20045;-67
2023/03/12 11:43:08;;;;;;;14.45;9.55;;;3.70;99.90;;;;;;5031497;28;20045;-67
2023/03/12 11:45:52;;;;;;;17.10;10.27;;;3.70;99.90;;;;;;5037297;28;20045;-67
2023/03/12 11:48:33;;;;;;;15.07;9.30;;;3.80;99.90;;;;;;5035861;28;20072;-67
2023/03/12 11:51:12;;;;;;;15.90;9.55;;;3.90;99.90;;;;;;5050424;28;20052;-68
2023/03/12 11:54:17;;;;;;;16.35;9.48;;;4.00;99.90;;;;;;5050902;28;20099;-68
2023/03/12 11:56:48;;;;;;;15.05;8.90;;;4.00;99.90;;;;;;5050241;28;20045;-67
2023/03/12 11:59:22;;;;;;;15.10;9.48;;;4.20;99.90;;;;;;5050528;28;20106;-67
2023/03/12 12:01:56;;;;;;;16.70;9.13;;;4.20;99.90;;;;;;5050830;28;20382;-68
2023/03/12 12:04:49;;;;;;;17.23;8.68;;;4.30;99.90;;;;;;5050520;28;20041;-67
2023/03/12 12:07:33;;;;;;;12.88;8.32;;;4.40;99.90;;;;;;5049510;28;20045;-67
2023/03/12 12:10:43;;;;;;;15.75;9.80;;;4.40;99.90;;;;;;5050537;28;20049;-67
2023/03/12 12:13:23;;;;;;;16.80;9.00;;;4.50;99.90;;;;;;5040598;28;20521;-67
2023/03/12 12:15:55;;;;;;;14.85;9.07;;;4.60;99.90;;;;;;5043015;28;20517;-69
2023/03/12 12:18:22;;;;;;;;;;;4.70;99.90;;;;;;5042310;28;20033;-69
2023/03/12 12:21:13;;;;;;;15.07;9.85;;;4.80;99.90;;;;;;5048719;28;19968;-69
2023/03/12 12:23:47;;;;;;;16.85;9.57;;;4.70;99.90;;;;;;5047293;28;20721;-68
2023/03/12 12:26:23;;;;;;;15.40;9.40;;;4.80;99.90;;;;;;5056220;28;20143;-69
2023/03/12 12:29:23;;;;;;;16.02;9.27;;;4.80;99.90;;;;;;5033884;28;20116;-69
2023/03/12 12:32:00;;;;;;;16.90;10.45;;;4.80;99.90;;;;;;5029531;28;20049;-69
2023/03/12 12:34:54;;;;;;;19.98;10.25;;;5.00;99.90;;;;;;5029427;28;20045;-69
2023/03/12 12:37:33;;;;;;;16.05;9.32;;;5.00;99.90;;;;;;5035429;28;20489;-69
2023/03/12 12:40:16;;;;;;;16.48;10.00;;;5.10;99.90;;;;;;5052819;28;20044;-69
2023/03/12 12:42:47;;;;;;;17.08;9.70;;;5.10;99.90;;;;;;5047556;28;20504;-69
2023/03/12 12:45:14;;;;;;;17.90;10.20;;;5.20;99.90;;;;;;5039568;28;20489;-68
2023/03/12 12:47:55;;;;;;;19.00;10.85;;;5.20;99.90;;;;;;5029472;28;20037;-68
2023/03/12 12:50:24;;;;;;;21.92;10.93;;;5.30;99.90;;;;;;5029635;28;20056;-69
2023/03/12 12:53:14;;;;;;;19.95;10.63;;;5.40;99.90;;;;;;5029343;28;20037;-69
2023/03/12 12:55:45;;;;;;;22.85;11.20;;;5.40;99.90;;;;;;5028774;28;20109;-69
2023/03/12 12:58:25;;;;;;;23.00;12.00;;;5.40;99.90;;;;;;5029168;28;20037;-69
2023/03/12 13:00:58;;;;;;;25.83;12.38;;;5.50;99.90;;;;;;5029692;28;20053;-69
2023/03/12 13:03:24;;;;;;;28.25;13.85;;;5.60;99.90;;;;;;5028744;28;20045;-68